Mills River, North Carolina
Current Conditions -  °F | °C
As of 12:54 AM on Wednesday 22 Oct 2014 (Local Time) from KAVL Reporting Station
Clear Clear  
Wind Chill: 42°   Ceiling: Unl
Heat Index: 47°   Visibility: 10mi
Dew Point: 34°   Wind: 12mph
Humidity: 61%   Direction: 320°NW
Pressure: 30.05"   Gusts: 20mph
Location:  35.39°N, 82.56°W
Report Text: KAVL 220454Z AUTO 32010G17KT 10SM CLR 08/01 A3005 RMK AO2 SLP162 T00830011 401940056
Loading
Personal Weather Stations






























Interactive Weather Map
Tropical Storm Tracking
New forecast layout! Learn more

10-Day Weather Forecast

Advertisements
Track Severe Weather on mobile